sensor_id;sensor_type;location;lat;lon;timestamp;temperature;humidity
6758;DHT22;3416;53.074;8.822;2023-10-19T00:00:31;10.00;99.90
6758;DHT22;3416;53.074;8.822;2023-10-19T00:02:59;9.90;99.90
6758;DHT22;3416;53.074;8.822;2023-10-19T00:05:28;9.80;99.90
6758;DHT22;3416;53.074;8.822;2023-10-19T00:07:55;9.60;99.90
6758;DHT22;3416;53.074;8.822;2023-10-19T00:10:26;9.50;99.90
6758;DHT22;3416;53.074;8.822;2023-10-19T00:12:56;9.30;99.90
6758;DHT22;3416;53.074;8.822;2023-10-19T00:15:26;9.30;99.90
6758;DHT22;3416;53.074;8.822;2023-10-19T00:17:55;9.20;99.90
6758;DHT22;3416;53.074;8.822;2023-10-19T00:20:22;9.10;99.90
6758;DHT22;3416;53.074;8.822;2023-10-19T00:23:03;9.00;99.90
6758;DHT22;3416;53.074;8.822;2023-10-19T00:25:33;8.90;99.90
6758;DHT22;3416;53.074;8.822;2023-10-19T00:28:02;8.90;99.90
6758;DHT22;3416;53.074;8.822;2023-10-19T00:30:31;8.80;99.90
6758;DHT22;3416;53.074;8.822;2023-10-19T00:33:01;8.70;99.90
6758;DHT22;3416;53.074;8.822;2023-10-19T00:35:30;8.70;99.90
6758;DHT22;3416;53.074;8.822;2023-10-19T00:38:02;8.70;99.90
6758;DHT22;3416;53.074;8.822;2023-10-19T00:40:54;8.70;99.90
6758;DHT22;3416;53.074;8.822;2023-10-19T00:43:29;8.60;99.90
6758;DHT22;3416;53.074;8.822;2023-10-19T00:45:59;8.60;99.90
6758;DHT22;3416;53.074;8.822;2023-10-19T00:48:28;8.60;99.90
6758;DHT22;3416;53.074;8.822;2023-10-19T00:50:58;8.50;99.90
6758;DHT22;3416;53.074;8.822;2023-10-19T00:53:35;8.50;99.90
6758;DHT22;3416;53.074;8.822;2023-10-19T00:56:08;8.50;99.90
6758;DHT22;3416;53.074;8.822;2023-10-19T00:58:37;8.40;99.90
6758;DHT22;3416;53.074;8.822;2023-10-19T01:01:06;8.40;99.90
6758;DHT22;3416;53.074;8.822;2023-10-19T01:03:35;8.30;99.90
6758;DHT22;3416;53.074;8.822;2023-10-19T01:06:05;8.30;99.90
6758;DHT22;3416;53.074;8.822;2023-10-19T01:08:37;8.30;99.90
6758;DHT22;3416;53.074;8.822;2023-10-19T01:11:10;8.30;99.90
6758;DHT22;3416;53.074;8.822;2023-10-19T01:13:38;8.30;99.90
6758;DHT22;3416;53.074;8.822;2023-10-19T01:16:12;8.30;99.90
6758;DHT22;3416;53.074;8.822;2023-10-19T01:18:41;8.30;99.90
6758;DHT22;3416;53.074;8.822;2023-10-19T01:21:08;8.20;99.90
6758;DHT22;3416;53.074;8.822;2023-10-19T01:23:38;8.20;99.90
6758;DHT22;3416;53.074;8.822;2023-10-19T01:26:06;8.30;99.90
6758;DHT22;3416;53.074;8.822;2023-10-19T01:28:35;8.30;99.90
6758;DHT22;3416;53.074;8.822;2023-10-19T01:31:10;8.30;99.90
6758;DHT22;3416;53.074;8.822;2023-10-19T01:33:41;8.20;99.90
6758;DHT22;3416;53.074;8.822;2023-10-19T01:36:09;8.20;99.90
6758;DHT22;3416;53.074;8.822;2023-10-19T01:38:51;8.20;99.90
6758;DHT22;3416;53.074;8.822;2023-10-19T01:41:19;8.20;99.90
6758;DHT22;3416;53.074;8.822;2023-10-19T01:43:48;8.20;99.90
6758;DHT22;3416;53.074;8.822;2023-10-19T01:46:17;8.20;99.90
6758;DHT22;3416;53.074;8.822;2023-10-19T01:48:48;8.20;99.90
6758;DHT22;3416;53.074;8.822;2023-10-19T01:51:19;8.20;99.90
6758;DHT22;3416;53.074;8.822;2023-10-19T01:53:46;8.20;99.90
6758;DHT22;3416;53.074;8.822;2023-10-19T01:56:16;8.10;99.90
6758;DHT22;3416;53.074;8.822;2023-10-19T01:58:43;8.10;99.90
6758;DHT22;3416;53.074;8.822;2023-10-19T02:01:12;8.10;99.90
6758;DHT22;3416;53.074;8.822;2023-10-19T02:03:45;8.10;99.90
6758;DHT22;3416;53.074;8.822;2023-10-19T02:06:14;8.00;99.90
6758;DHT22;3416;53.074;8.822;2023-10-19T02:08:45;8.00;99.90
6758;DHT22;3416;53.074;8.822;2023-10-19T02:11:14;8.00;99.90
6758;DHT22;3416;53.074;8.822;2023-10-19T02:13:44;8.00;99.90
6758;DHT22;3416;53.074;8.822;2023-10-19T02:16:12;8.00;99.90
6758;DHT22;3416;53.074;8.822;2023-10-19T02:18:39;8.20;99.90
6758;DHT22;3416;53.074;8.822;2023-10-19T02:21:06;8.00;99.90
6758;DHT22;3416;53.074;8.822;2023-10-19T02:23:32;8.00;99.90
6758;DHT22;3416;53.074;8.822;2023-10-19T02:26:01;8.00;99.90
6758;DHT22;3416;53.074;8.822;2023-10-19T02:28:31;8.00;99.90
6758;DHT22;3416;53.074;8.822;2023-10-19T02:30:58;8.00;99.90
6758;DHT22;3416;53.074;8.822;2023-10-19T02:33:37;8.00;99.90
6758;DHT22;3416;53.074;8.822;2023-10-19T02:36:04;8.00;99.90
6758;DHT22;3416;53.074;8.822;2023-10-19T02:38:38;8.10;99.90
6758;DHT22;3416;53.074;8.822;2023-10-19T02:41:04;8.00;99.90
6758;DHT22;3416;53.074;8.822;2023-10-19T02:43:33;8.00;99.90
6758;DHT22;3416;53.074;8.822;2023-10-19T02:46:00;8.00;99.90
6758;DHT22;3416;53.074;8.822;2023-10-19T02:48:28;8.00;99.90
6758;DHT22;3416;53.074;8.822;2023-10-19T02:50:54;8.00;99.90
6758;DHT22;3416;53.074;8.822;2023-10-19T02:53:23;8.00;99.90
6758;DHT22;3416;53.074;8.822;2023-10-19T02:55:50;8.00;99.90
6758;DHT22;3416;53.074;8.822;2023-10-19T02:58:17;8.00;99.90
6758;DHT22;3416;53.074;8.822;2023-10-19T03:00:44;8.00;99.90
6758;DHT22;3416;53.074;8.822;2023-10-19T03:03:11;8.00;99.90
6758;DHT22;3416;53.074;8.822;2023-10-19T03:05:37;8.00;99.90
6758;DHT22;3416;53.074;8.822;2023-10-19T03:08:07;8.10;99.90
6758;DHT22;3416;53.074;8.822;2023-10-19T03:10:33;8.00;99.90
6758;DHT22;3416;53.074;8.822;2023-10-19T03:13:07;8.10;99.90
6758;DHT22;3416;53.074;8.822;2023-10-19T03:15:34;8.00;99.90
6758;DHT22;3416;53.074;8.822;2023-10-19T03:18:02;8.00;99.90
6758;DHT22;3416;53.074;8.822;2023-10-19T03:20:30;8.00;99.90
6758;DHT22;3416;53.074;8.822;2023-10-19T03:22:58;8.00;99.90
6758;DHT22;3416;53.074;8.822;2023-10-19T03:25:27;8.00;99.90
6758;DHT22;3416;53.074;8.822;2023-10-19T03:28:20;8.00;99.90
6758;DHT22;3416;53.074;8.822;2023-10-19T03:30:51;8.00;99.90
6758;DHT22;3416;53.074;8.822;2023-10-19T03:33:22;8.00;99.90
6758;DHT22;3416;53.074;8.822;2023-10-19T03:35:52;8.00;99.90
6758;DHT22;3416;53.074;8.822;2023-10-19T03:38:19;8.00;99.90
6758;DHT22;3416;53.074;8.822;2023-10-19T03:40:48;8.00;99.90
6758;DHT22;3416;53.074;8.822;2023-10-19T03:43:23;7.90;99.90
6758;DHT22;3416;53.074;8.822;2023-10-19T03:45:53;7.90;99.90
6758;DHT22;3416;53.074;8.822;2023-10-19T03:48:22;7.90;99.90
6758;DHT22;3416;53.074;8.822;2023-10-19T03:50:56;7.90;99.90
6758;DHT22;3416;53.074;8.822;2023-10-19T03:53:23;8.00;99.90
6758;DHT22;3416;53.074;8.822;2023-10-19T03:55:50;7.90;99.90
6758;DHT22;3416;53.074;8.822;2023-10-19T03:58:18;8.00;99.90
6758;DHT22;3416;53.074;8.822;2023-10-19T04:00:46;8.00;99.90
6758;DHT22;3416;53.074;8.822;2023-10-19T04:03:14;7.90;99.90
6758;DHT22;3416;53.074;8.822;2023-10-19T04:05:42;7.90;99.90
6758;DHT22;3416;53.074;8.822;2023-10-19T04:08:12;8.00;99.90
6758;DHT22;3416;53.074;8.822;2023-10-19T04:10:40;7.90;99.90
6758;DHT22;3416;53.074;8.822;2023-10-19T04:13:14;7.90;99.90
6758;DHT22;3416;53.074;8.822;2023-10-19T04:15:43;7.90;99.90
6758;DHT22;3416;53.074;8.822;2023-10-19T04:18:10;7.90;99.90
6758;DHT22;3416;53.074;8.822;2023-10-19T04:20:38;7.90;99.90
6758;DHT22;3416;53.074;8.822;2023-10-19T04:23:25;7.90;99.90
6758;DHT22;3416;53.074;8.822;2023-10-19T04:25:54;7.90;99.90
6758;DHT22;3416;53.074;8.822;2023-10-19T04:28:23;7.90;99.90
6758;DHT22;3416;53.074;8.822;2023-10-19T04:30:59;7.90;99.90
6758;DHT22;3416;53.074;8.822;2023-10-19T04:33:31;7.90;99.90
6758;DHT22;3416;53.074;8.822;2023-10-19T04:35:59;7.90;99.90
6758;DHT22;3416;53.074;8.822;2023-10-19T04:38:28;7.90;99.90
6758;DHT22;3416;53.074;8.822;2023-10-19T04:41:04;7.90;99.90
6758;DHT22;3416;53.074;8.822;2023-10-19T04:43:33;7.90;99.90
6758;DHT22;3416;53.074;8.822;2023-10-19T04:46:04;7.90;99.90
6758;DHT22;3416;53.074;8.822;2023-10-19T04:48:34;7.90;99.90
6758;DHT22;3416;53.074;8.822;2023-10-19T04:51:02;7.90;99.90
6758;DHT22;3416;53.074;8.822;2023-10-19T04:53:32;7.90;99.90
6758;DHT22;3416;53.074;8.822;2023-10-19T04:55:59;7.90;99.90
6758;DHT22;3416;53.074;8.822;2023-10-19T04:58:26;8.00;99.90
6758;DHT22;3416;53.074;8.822;2023-10-19T05:00:54;8.00;99.90
6758;DHT22;3416;53.074;8.822;2023-10-19T05:03:21;8.00;99.90
6758;DHT22;3416;53.074;8.822;2023-10-19T05:05:49;8.00;99.90
6758;DHT22;3416;53.074;8.822;2023-10-19T05:08:17;8.00;99.90
6758;DHT22;3416;53.074;8.822;2023-10-19T05:10:46;8.00;99.90
6758;DHT22;3416;53.074;8.822;2023-10-19T05:13:12;8.00;99.90
6758;DHT22;3416;53.074;8.822;2023-10-19T05:15:39;8.00;99.90
6758;DHT22;3416;53.074;8.822;2023-10-19T05:18:08;8.00;99.90
6758;DHT22;3416;53.074;8.822;2023-10-19T05:20:35;8.00;99.90
6758;DHT22;3416;53.074;8.822;2023-10-19T05:23:06;8.00;99.90
6758;DHT22;3416;53.074;8.822;2023-10-19T05:25:33;8.00;99.90
6758;DHT22;3416;53.074;8.822;2023-10-19T05:28:02;8.00;99.90
6758;DHT22;3416;53.074;8.822;2023-10-19T05:30:29;8.00;99.90
6758;DHT22;3416;53.074;8.822;2023-10-19T05:32:57;8.00;99.90
6758;DHT22;3416;53.074;8.822;2023-10-19T05:35:25;7.90;99.90
6758;DHT22;3416;53.074;8.822;2023-10-19T05:37:52;7.90;99.90
6758;DHT22;3416;53.074;8.822;2023-10-19T05:40:21;8.00;99.90
6758;DHT22;3416;53.074;8.822;2023-10-19T05:42:49;8.00;99.90
6758;DHT22;3416;53.074;8.822;2023-10-19T05:45:17;8.00;99.90
6758;DHT22;3416;53.074;8.822;2023-10-19T05:47:45;8.00;99.90
6758;DHT22;3416;53.074;8.822;2023-10-19T05:50:12;8.00;99.90
6758;DHT22;3416;53.074;8.822;2023-10-19T05:52:41;8.00;99.90
6758;DHT22;3416;53.074;8.822;2023-10-19T05:55:08;8.10;99.90
6758;DHT22;3416;53.074;8.822;2023-10-19T05:57:36;8.00;99.90
6758;DHT22;3416;53.074;8.822;2023-10-19T06:00:08;7.90;99.90
6758;DHT22;3416;53.074;8.822;2023-10-19T06:02:41;7.90;99.90
6758;DHT22;3416;53.074;8.822;2023-10-19T06:05:09;7.90;99.90
6758;DHT22;3416;53.074;8.822;2023-10-19T06:07:36;7.90;99.90
6758;DHT22;3416;53.074;8.822;2023-10-19T06:10:04;7.90;99.90
6758;DHT22;3416;53.074;8.822;2023-10-19T06:12:32;7.90;99.90
6758;DHT22;3416;53.074;8.822;2023-10-19T06:15:00;7.90;99.90
6758;DHT22;3416;53.074;8.822;2023-10-19T06:17:27;7.90;99.90
6758;DHT22;3416;53.074;8.822;2023-10-19T06:19:56;7.90;99.90
6758;DHT22;3416;53.074;8.822;2023-10-19T06:22:22;7.90;99.90
6758;DHT22;3416;53.074;8.822;2023-10-19T06:24:50;7.90;99.90
6758;DHT22;3416;53.074;8.822;2023-10-19T06:27:17;7.90;99.90
6758;DHT22;3416;53.074;8.822;2023-10-19T06:29:44;7.90;99.90
6758;DHT22;3416;53.074;8.822;2023-10-19T06:32:11;7.90;99.90
6758;DHT22;3416;53.074;8.822;2023-10-19T06:34:40;8.00;99.90
6758;DHT22;3416;53.074;8.822;2023-10-19T06:37:08;8.00;99.90
6758;DHT22;3416;53.074;8.822;2023-10-19T06:39:37;8.00;99.90
6758;DHT22;3416;53.074;8.822;2023-10-19T06:42:07;8.00;99.90
6758;DHT22;3416;53.074;8.822;2023-10-19T06:44:35;8.00;99.90
6758;DHT22;3416;53.074;8.822;2023-10-19T06:47:03;8.00;99.90
6758;DHT22;3416;53.074;8.822;2023-10-19T06:49:32;8.00;99.90
6758;DHT22;3416;53.074;8.822;2023-10-19T06:51:59;8.00;99.90
6758;DHT22;3416;53.074;8.822;2023-10-19T06:54:28;8.10;99.90
6758;DHT22;3416;53.074;8.822;2023-10-19T06:56:54;8.10;99.90
6758;DHT22;3416;53.074;8.822;2023-10-19T06:59:21;8.00;99.90
6758;DHT22;3416;53.074;8.822;2023-10-19T07:01:49;8.00;99.90
6758;DHT22;3416;53.074;8.822;2023-10-19T07:04:16;8.00;99.90
6758;DHT22;3416;53.074;8.822;2023-10-19T07:06:43;8.10;99.90
6758;DHT22;3416;53.074;8.822;2023-10-19T07:09:10;8.00;99.90
6758;DHT22;3416;53.074;8.822;2023-10-19T07:11:38;8.00;99.90
6758;DHT22;3416;53.074;8.822;2023-10-19T07:14:05;8.00;99.90
6758;DHT22;3416;53.074;8.822;2023-10-19T07:16:33;8.00;99.90
6758;DHT22;3416;53.074;8.822;2023-10-19T07:19:00;8.00;99.90
6758;DHT22;3416;53.074;8.822;2023-10-19T07:21:27;8.00;99.90
6758;DHT22;3416;53.074;8.822;2023-10-19T07:23:57;8.00;99.90
6758;DHT22;3416;53.074;8.822;2023-10-19T07:26:27;8.00;99.90
6758;DHT22;3416;53.074;8.822;2023-10-19T07:28:58;8.00;99.90
6758;DHT22;3416;53.074;8.822;2023-10-19T07:31:25;8.10;99.90
6758;DHT22;3416;53.074;8.822;2023-10-19T07:33:55;8.10;99.90
6758;DHT22;3416;53.074;8.822;2023-10-19T07:36:24;8.10;99.90
6758;DHT22;3416;53.074;8.822;2023-10-19T07:38:51;8.10;99.90
6758;DHT22;3416;53.074;8.822;2023-10-19T07:41:19;8.10;99.90
6758;DHT22;3416;53.074;8.822;2023-10-19T07:43:46;8.20;99.90
6758;DHT22;3416;53.074;8.822;2023-10-19T07:46:15;8.20;99.90
6758;DHT22;3416;53.074;8.822;2023-10-19T07:48:42;8.20;99.90
6758;DHT22;3416;53.074;8.822;2023-10-19T07:51:09;8.20;99.90
6758;DHT22;3416;53.074;8.822;2023-10-19T07:53:37;8.10;99.90
6758;DHT22;3416;53.074;8.822;2023-10-19T07:56:06;8.20;99.90
6758;DHT22;3416;53.074;8.822;2023-10-19T07:58:33;8.20;99.90
6758;DHT22;3416;53.074;8.822;2023-10-19T08:01:00;8.20;99.90
6758;DHT22;3416;53.074;8.822;2023-10-19T08:03:29;8.20;99.90
6758;DHT22;3416;53.074;8.822;2023-10-19T08:05:55;8.30;99.90
6758;DHT22;3416;53.074;8.822;2023-10-19T08:08:22;8.30;99.90
6758;DHT22;3416;53.074;8.822;2023-10-19T08:10:50;8.40;99.90
6758;DHT22;3416;53.074;8.822;2023-10-19T08:13:17;8.40;99.90
6758;DHT22;3416;53.074;8.822;2023-10-19T08:15:44;8.40;99.90
6758;DHT22;3416;53.074;8.822;2023-10-19T08:18:10;8.50;99.90
6758;DHT22;3416;53.074;8.822;2023-10-19T08:20:41;8.40;99.90
6758;DHT22;3416;53.074;8.822;2023-10-19T08:23:11;8.50;99.90
6758;DHT22;3416;53.074;8.822;2023-10-19T08:25:39;8.60;99.90
6758;DHT22;3416;53.074;8.822;2023-10-19T08:28:06;8.40;99.90
6758;DHT22;3416;53.074;8.822;2023-10-19T08:30:33;8.40;99.90
6758;DHT22;3416;53.074;8.822;2023-10-19T08:33:00;8.40;99.90
6758;DHT22;3416;53.074;8.822;2023-10-19T08:35:27;8.50;99.90
6758;DHT22;3416;53.074;8.822;2023-10-19T08:37:56;8.50;99.90
6758;DHT22;3416;53.074;8.822;2023-10-19T08:40:25;8.50;99.90
6758;DHT22;3416;53.074;8.822;2023-10-19T08:42:52;8.50;99.90
6758;DHT22;3416;53.074;8.822;2023-10-19T08:45:20;8.50;99.90
6758;DHT22;3416;53.074;8.822;2023-10-19T08:47:52;8.50;99.90
6758;DHT22;3416;53.074;8.822;2023-10-19T08:50:22;8.50;99.90
6758;DHT22;3416;53.074;8.822;2023-10-19T08:52:52;8.50;99.90
6758;DHT22;3416;53.074;8.822;2023-10-19T08:55:21;8.50;99.90
6758;DHT22;3416;53.074;8.822;2023-10-19T08:57:49;8.60;99.90
6758;DHT22;3416;53.074;8.822;2023-10-19T09:00:17;8.60;99.90
6758;DHT22;3416;53.074;8.822;2023-10-19T09:02:44;8.70;99.90
6758;DHT22;3416;53.074;8.822;2023-10-19T09:05:12;8.70;99.90
6758;DHT22;3416;53.074;8.822;2023-10-19T09:07:46;8.80;99.90
6758;DHT22;3416;53.074;8.822;2023-10-19T09:10:21;8.80;99.90
6758;DHT22;3416;53.074;8.822;2023-10-19T09:12:59;8.70;99.90
6758;DHT22;3416;53.074;8.822;2023-10-19T09:15:27;8.70;99.90
6758;DHT22;3416;53.074;8.822;2023-10-19T09:17:54;8.70;99.90
6758;DHT22;3416;53.074;8.822;2023-10-19T09:20:21;8.70;99.90
6758;DHT22;3416;53.074;8.822;2023-10-19T09:22:53;8.60;99.90
6758;DHT22;3416;53.074;8.822;2023-10-19T09:25:21;8.70;99.90
6758;DHT22;3416;53.074;8.822;2023-10-19T09:27:50;8.60;99.90
6758;DHT22;3416;53.074;8.822;2023-10-19T09:30:20;8.70;99.90
6758;DHT22;3416;53.074;8.822;2023-10-19T09:32:48;8.70;99.90
6758;DHT22;3416;53.074;8.822;2023-10-19T09:35:16;8.60;99.90
6758;DHT22;3416;53.074;8.822;2023-10-19T09:37:45;8.60;99.90
6758;DHT22;3416;53.074;8.822;2023-10-19T09:40:13;8.70;99.90
6758;DHT22;3416;53.074;8.822;2023-10-19T09:42:43;8.80;99.90
6758;DHT22;3416;53.074;8.822;2023-10-19T09:45:19;8.80;99.90
6758;DHT22;3416;53.074;8.822;2023-10-19T09:47:50;8.90;99.90
6758;DHT22;3416;53.074;8.822;2023-10-19T09:50:17;8.90;99.90
6758;DHT22;3416;53.074;8.822;2023-10-19T09:52:45;9.00;99.90
6758;DHT22;3416;53.074;8.822;2023-10-19T09:55:17;9.10;99.90
6758;DHT22;3416;53.074;8.822;2023-10-19T09:57:50;9.10;99.90
6758;DHT22;3416;53.074;8.822;2023-10-19T10:00:18;9.00;99.90
6758;DHT22;3416;53.074;8.822;2023-10-19T10:02:49;9.00;99.90
6758;DHT22;3416;53.074;8.822;2023-10-19T10:05:44;9.00;99.90
6758;DHT22;3416;53.074;8.822;2023-10-19T10:08:38;9.10;99.90
6758;DHT22;3416;53.074;8.822;2023-10-19T10:11:18;9.10;99.90
6758;DHT22;3416;53.074;8.822;2023-10-19T10:13:47;9.20;99.90
6758;DHT22;3416;53.074;8.822;2023-10-19T10:16:18;9.20;99.90
6758;DHT22;3416;53.074;8.822;2023-10-19T10:18:47;9.20;99.90
6758;DHT22;3416;53.074;8.822;2023-10-19T10:21:17;9.20;99.90
6758;DHT22;3416;53.074;8.822;2023-10-19T10:23:47;9.10;99.90
6758;DHT22;3416;53.074;8.822;2023-10-19T10:26:15;9.10;99.90
6758;DHT22;3416;53.074;8.822;2023-10-19T10:28:47;9.10;99.90
6758;DHT22;3416;53.074;8.822;2023-10-19T10:31:20;9.10;99.90
6758;DHT22;3416;53.074;8.822;2023-10-19T10:33:48;9.10;99.90
6758;DHT22;3416;53.074;8.822;2023-10-19T10:36:17;9.10;99.90
6758;DHT22;3416;53.074;8.822;2023-10-19T10:38:45;9.10;99.90
6758;DHT22;3416;53.074;8.822;2023-10-19T10:41:12;9.00;99.90
6758;DHT22;3416;53.074;8.822;2023-10-19T10:43:51;9.00;99.90
6758;DHT22;3416;53.074;8.822;2023-10-19T10:46:20;9.00;99.90
6758;DHT22;3416;53.074;8.822;2023-10-19T10:48:48;9.10;99.90
6758;DHT22;3416;53.074;8.822;2023-10-19T10:51:17;9.20;99.90
6758;DHT22;3416;53.074;8.822;2023-10-19T10:53:43;9.20;99.90
6758;DHT22;3416;53.074;8.822;2023-10-19T10:56:10;9.30;99.90
6758;DHT22;3416;53.074;8.822;2023-10-19T10:58:37;9.30;99.90
6758;DHT22;3416;53.074;8.822;2023-10-19T11:01:07;9.40;99.90
6758;DHT22;3416;53.074;8.822;2023-10-19T11:03:35;9.30;99.90
6758;DHT22;3416;53.074;8.822;2023-10-19T11:06:06;9.30;99.90
6758;DHT22;3416;53.074;8.822;2023-10-19T11:08:34;9.30;99.90
6758;DHT22;3416;53.074;8.822;2023-10-19T11:11:04;9.30;99.90
6758;DHT22;3416;53.074;8.822;2023-10-19T11:13:31;9.40;99.90
6758;DHT22;3416;53.074;8.822;2023-10-19T11:16:02;9.40;99.90
6758;DHT22;3416;53.074;8.822;2023-10-19T11:18:33;9.50;99.90
6758;DHT22;3416;53.074;8.822;2023-10-19T11:21:02;9.60;99.90
6758;DHT22;3416;53.074;8.822;2023-10-19T11:23:40;9.50;99.90
6758;DHT22;3416;53.074;8.822;2023-10-19T11:26:08;9.50;99.90
6758;DHT22;3416;53.074;8.822;2023-10-19T11:28:36;9.40;99.90
6758;DHT22;3416;53.074;8.822;2023-10-19T11:31:16;9.40;99.90
6758;DHT22;3416;53.074;8.822;2023-10-19T11:33:45;9.30;99.90
6758;DHT22;3416;53.074;8.822;2023-10-19T11:36:14;9.40;99.90
6758;DHT22;3416;53.074;8.822;2023-10-19T11:38:41;9.30;99.90
6758;DHT22;3416;53.074;8.822;2023-10-19T11:41:09;9.30;99.90
6758;DHT22;3416;53.074;8.822;2023-10-19T11:43:36;9.30;99.90
6758;DHT22;3416;53.074;8.822;2023-10-19T11:46:03;9.30;99.90
6758;DHT22;3416;53.074;8.822;2023-10-19T11:48:32;9.20;99.90
6758;DHT22;3416;53.074;8.822;2023-10-19T11:51:01;9.30;99.90
6758;DHT22;3416;53.074;8.822;2023-10-19T11:53:31;9.30;99.90
6758;DHT22;3416;53.074;8.822;2023-10-19T11:55:59;9.20;99.90
6758;DHT22;3416;53.074;8.822;2023-10-19T11:58:26;9.20;99.90
6758;DHT22;3416;53.074;8.822;2023-10-19T12:00:54;9.20;99.90
6758;DHT22;3416;53.074;8.822;2023-10-19T12:03:21;9.10;99.90
6758;DHT22;3416;53.074;8.822;2023-10-19T12:05:48;9.20;99.90
6758;DHT22;3416;53.074;8.822;2023-10-19T12:08:19;9.10;99.90
6758;DHT22;3416;53.074;8.822;2023-10-19T12:10:46;9.10;99.90
6758;DHT22;3416;53.074;8.822;2023-10-19T12:13:13;9.10;99.90
6758;DHT22;3416;53.074;8.822;2023-10-19T12:15:41;9.20;99.90
6758;DHT22;3416;53.074;8.822;2023-10-19T12:18:17;9.10;99.90
6758;DHT22;3416;53.074;8.822;2023-10-19T12:20:45;9.20;99.90
6758;DHT22;3416;53.074;8.822;2023-10-19T12:23:12;9.10;99.90
6758;DHT22;3416;53.074;8.822;2023-10-19T12:25:41;9.10;99.90
6758;DHT22;3416;53.074;8.822;2023-10-19T12:28:09;9.20;99.90
6758;DHT22;3416;53.074;8.822;2023-10-19T12:30:42;9.20;99.90
6758;DHT22;3416;53.074;8.822;2023-10-19T12:33:10;9.20;99.90
6758;DHT22;3416;53.074;8.822;2023-10-19T12:35:41;9.20;99.90
6758;DHT22;3416;53.074;8.822;2023-10-19T12:38:15;9.10;99.90
6758;DHT22;3416;53.074;8.822;2023-10-19T12:40:47;9.10;99.90
6758;DHT22;3416;53.074;8.822;2023-10-19T12:43:16;9.00;99.90
6758;DHT22;3416;53.074;8.822;2023-10-19T12:45:45;9.00;99.90
6758;DHT22;3416;53.074;8.822;2023-10-19T12:48:16;9.00;99.90
6758;DHT22;3416;53.074;8.822;2023-10-19T12:50:43;9.00;99.90
6758;DHT22;3416;53.074;8.822;2023-10-19T12:53:10;9.00;99.90
6758;DHT22;3416;53.074;8.822;2023-10-19T12:55:37;9.00;99.90
6758;DHT22;3416;53.074;8.822;2023-10-19T12:58:06;9.00;99.90
6758;DHT22;3416;53.074;8.822;2023-10-19T13:00:35;9.10;99.90
6758;DHT22;3416;53.074;8.822;2023-10-19T13:03:10;9.10;99.90
6758;DHT22;3416;53.074;8.822;2023-10-19T13:05:42;9.10;99.90
6758;DHT22;3416;53.074;8.822;2023-10-19T13:08:10;9.10;99.90
6758;DHT22;3416;53.074;8.822;2023-10-19T13:10:41;9.10;99.90
6758;DHT22;3416;53.074;8.822;2023-10-19T13:13:11;9.00;99.90
6758;DHT22;3416;53.074;8.822;2023-10-19T13:15:40;9.00;99.90
6758;DHT22;3416;53.074;8.822;2023-10-19T13:18:08;9.10;99.90
6758;DHT22;3416;53.074;8.822;2023-10-19T13:20:37;9.10;99.90
6758;DHT22;3416;53.074;8.822;2023-10-19T13:23:05;9.10;99.90
6758;DHT22;3416;53.074;8.822;2023-10-19T13:25:39;9.10;99.90
6758;DHT22;3416;53.074;8.822;2023-10-19T13:28:09;9.10;99.90
6758;DHT22;3416;53.074;8.822;2023-10-19T13:30:37;9.10;99.90
6758;DHT22;3416;53.074;8.822;2023-10-19T13:33:05;9.00;99.90
6758;DHT22;3416;53.074;8.822;2023-10-19T13:35:33;9.10;99.90
6758;DHT22;3416;53.074;8.822;2023-10-19T13:38:00;9.00;99.90
6758;DHT22;3416;53.074;8.822;2023-10-19T13:40:27;9.00;99.90
6758;DHT22;3416;53.074;8.822;2023-10-19T13:42:56;9.00;99.90
6758;DHT22;3416;53.074;8.822;2023-10-19T13:45:25;9.00;99.90
6758;DHT22;3416;53.074;8.822;2023-10-19T13:47:52;9.10;99.90
6758;DHT22;3416;53.074;8.822;2023-10-19T13:50:22;9.00;99.90
6758;DHT22;3416;53.074;8.822;2023-10-19T13:52:50;9.00;99.90
6758;DHT22;3416;53.074;8.822;2023-10-19T13:55:17;8.90;99.90
6758;DHT22;3416;53.074;8.822;2023-10-19T13:57:46;9.00;99.90
6758;DHT22;3416;53.074;8.822;2023-10-19T14:00:14;9.00;99.90
6758;DHT22;3416;53.074;8.822;2023-10-19T14:02:47;8.90;99.90
6758;DHT22;3416;53.074;8.822;2023-10-19T14:05:14;8.90;99.90
6758;DHT22;3416;53.074;8.822;2023-10-19T14:07:41;8.90;99.90
6758;DHT22;3416;53.074;8.822;2023-10-19T14:10:09;8.90;99.90
6758;DHT22;3416;53.074;8.822;2023-10-19T14:12:38;8.90;99.90
6758;DHT22;3416;53.074;8.822;2023-10-19T14:15:11;8.90;99.90
6758;DHT22;3416;53.074;8.822;2023-10-19T14:17:39;8.90;99.90
6758;DHT22;3416;53.074;8.822;2023-10-19T14:20:08;8.90;99.90
6758;DHT22;3416;53.074;8.822;2023-10-19T14:22:39;8.90;99.90
6758;DHT22;3416;53.074;8.822;2023-10-19T14:25:07;8.90;99.90
6758;DHT22;3416;53.074;8.822;2023-10-19T14:27:39;8.90;99.90
6758;DHT22;3416;53.074;8.822;2023-10-19T14:30:07;8.90;99.90
6758;DHT22;3416;53.074;8.822;2023-10-19T14:32:37;8.90;99.90
6758;DHT22;3416;53.074;8.822;2023-10-19T14:35:07;8.90;99.90
6758;DHT22;3416;53.074;8.822;2023-10-19T14:37:38;8.90;99.90
6758;DHT22;3416;53.074;8.822;2023-10-19T14:40:09;8.90;99.90
6758;DHT22;3416;53.074;8.822;2023-10-19T14:42:37;8.90;99.90
6758;DHT22;3416;53.074;8.822;2023-10-19T14:45:06;8.90;99.90
6758;DHT22;3416;53.074;8.822;2023-10-19T14:47:35;8.90;99.90
6758;DHT22;3416;53.074;8.822;2023-10-19T14:50:03;9.00;99.90
6758;DHT22;3416;53.074;8.822;2023-10-19T14:52:31;8.90;99.90
6758;DHT22;3416;53.074;8.822;2023-10-19T14:54:59;9.00;99.90
6758;DHT22;3416;53.074;8.822;2023-10-19T14:57:26;9.00;99.90
6758;DHT22;3416;53.074;8.822;2023-10-19T14:59:53;9.00;99.90
6758;DHT22;3416;53.074;8.822;2023-10-19T15:02:20;9.00;99.90
6758;DHT22;3416;53.074;8.822;2023-10-19T15:04:49;9.00;99.90
6758;DHT22;3416;53.074;8.822;2023-10-19T15:07:17;9.00;99.90
6758;DHT22;3416;53.074;8.822;2023-10-19T15:09:46;9.00;99.90
6758;DHT22;3416;53.074;8.822;2023-10-19T15:12:13;9.10;99.90
6758;DHT22;3416;53.074;8.822;2023-10-19T15:14:41;9.10;99.90
6758;DHT22;3416;53.074;8.822;2023-10-19T15:17:09;9.10;99.90
6758;DHT22;3416;53.074;8.822;2023-10-19T15:19:37;9.10;99.90
6758;DHT22;3416;53.074;8.822;2023-10-19T15:22:04;9.10;99.90
6758;DHT22;3416;53.074;8.822;2023-10-19T15:24:31;9.10;99.90
6758;DHT22;3416;53.074;8.822;2023-10-19T15:27:00;9.00;99.90
6758;DHT22;3416;53.074;8.822;2023-10-19T15:29:27;9.00;99.90
6758;DHT22;3416;53.074;8.822;2023-10-19T15:31:54;8.90;99.90
6758;DHT22;3416;53.074;8.822;2023-10-19T15:34:22;9.00;99.90
6758;DHT22;3416;53.074;8.822;2023-10-19T15:36:49;8.90;99.90
6758;DHT22;3416;53.074;8.822;2023-10-19T15:39:16;8.90;99.90
6758;DHT22;3416;53.074;8.822;2023-10-19T15:41:44;8.90;99.90
6758;DHT22;3416;53.074;8.822;2023-10-19T15:44:12;8.90;99.90
6758;DHT22;3416;53.074;8.822;2023-10-19T15:46:39;8.90;99.90
6758;DHT22;3416;53.074;8.822;2023-10-19T15:49:08;8.90;99.90
6758;DHT22;3416;53.074;8.822;2023-10-19T15:51:36;8.90;99.90
6758;DHT22;3416;53.074;8.822;2023-10-19T15:54:03;8.90;99.90
6758;DHT22;3416;53.074;8.822;2023-10-19T15:56:31;9.00;99.90
6758;DHT22;3416;53.074;8.822;2023-10-19T15:58:58;9.00;99.90
6758;DHT22;3416;53.074;8.822;2023-10-19T16:01:26;8.90;99.90
6758;DHT22;3416;53.074;8.822;2023-10-19T16:03:54;8.90;99.90
6758;DHT22;3416;53.074;8.822;2023-10-19T16:06:21;8.90;99.90
6758;DHT22;3416;53.074;8.822;2023-10-19T16:08:48;8.90;99.90
6758;DHT22;3416;53.074;8.822;2023-10-19T16:11:17;8.90;99.90
6758;DHT22;3416;53.074;8.822;2023-10-19T16:13:44;8.80;99.90
6758;DHT22;3416;53.074;8.822;2023-10-19T16:16:11;8.90;99.90
6758;DHT22;3416;53.074;8.822;2023-10-19T16:18:39;8.80;99.90
6758;DHT22;3416;53.074;8.822;2023-10-19T16:21:07;8.90;99.90
6758;DHT22;3416;53.074;8.822;2023-10-19T16:23:34;8.80;99.90
6758;DHT22;3416;53.074;8.822;2023-10-19T16:26:01;8.80;99.90
6758;DHT22;3416;53.074;8.822;2023-10-19T16:28:28;8.80;99.90